sensor_id;sensor_type;location;lat;lon;timestamp;pressure;altitude;pressure_sealevel;temperature;humidity
51249;BME280;39642;47.556;18.728;2023-02-17T00:01:09;100487.22;;;21.77;28.33
51249;BME280;39642;47.556;18.728;2023-02-17T00:03:35;100485.53;;;21.76;28.34
51249;BME280;39642;47.556;18.728;2023-02-17T00:06:05;100480.22;;;21.76;28.16
51249;BME280;39642;47.556;18.728;2023-02-17T00:08:31;100490.84;;;21.76;27.88
51249;BME280;39642;47.556;18.728;2023-02-17T00:10:57;100485.53;;;21.76;28.43
51249;BME280;39642;47.556;18.728;2023-02-17T00:13:23;100486.47;;;21.75;27.91
51249;BME280;39642;47.556;18.728;2023-02-17T00:15:49;100483.81;;;21.75;28.50
51249;BME280;39642;47.556;18.728;2023-02-17T00:18:15;100485.59;;;21.74;28.60
51249;BME280;39642;47.556;18.728;2023-02-17T00:20:41;100482.94;;;21.74;28.46
51249;BME280;39642;47.556;18.728;2023-02-17T00:23:07;100471.50;;;21.74;28.41
51249;BME280;39642;47.556;18.728;2023-02-17T00:25:33;100475.06;;;21.73;28.59
51249;BME280;39642;47.556;18.728;2023-02-17T00:27:59;100478.59;;;21.73;28.41
51249;BME280;39642;47.556;18.728;2023-02-17T00:30:24;100482.19;;;21.72;28.51
51249;BME280;39642;47.556;18.728;2023-02-17T00:32:50;100476.09;;;21.70;28.55
51249;BME280;39642;47.556;18.728;2023-02-17T00:35:16;100481.41;;;21.70;28.50
51249;BME280;39642;47.556;18.728;2023-02-17T00:37:42;100491.16;;;21.70;28.27
51249;BME280;39642;47.556;18.728;2023-02-17T00:40:11;100496.44;;;21.70;28.14
51249;BME280;39642;47.556;18.728;2023-02-17T00:42:37;100495.59;;;21.69;28.66
51249;BME280;39642;47.556;18.728;2023-02-17T00:45:03;100493.88;;;21.68;28.59
51249;BME280;39642;47.556;18.728;2023-02-17T00:47:29;100496.53;;;21.68;28.37
51249;BME280;39642;47.556;18.728;2023-02-17T00:49:55;100494.75;;;21.69;28.50
51249;BME280;39642;47.556;18.728;2023-02-17T00:52:21;100499.16;;;21.68;28.38
51249;BME280;39642;47.556;18.728;2023-02-17T00:54:47;100488.56;;;21.68;28.34
51249;BME280;39642;47.556;18.728;2023-02-17T00:57:13;100494.75;;;21.69;28.45
51249;BME280;39642;47.556;18.728;2023-02-17T00:59:39;100492.94;;;21.69;28.30
51249;BME280;39642;47.556;18.728;2023-02-17T01:02:05;100497.31;;;21.70;28.40
51249;BME280;39642;47.556;18.728;2023-02-17T01:04:31;100500.84;;;21.71;28.11
51249;BME280;39642;47.556;18.728;2023-02-17T01:06:57;100497.22;;;21.72;28.32
51249;BME280;39642;47.556;18.728;2023-02-17T01:09:23;100497.22;;;21.72;28.40
51249;BME280;39642;47.556;18.728;2023-02-17T01:11:49;100499.81;;;21.73;28.32
51249;BME280;39642;47.556;18.728;2023-02-17T01:14:16;100493.63;;;21.73;28.22
51249;BME280;39642;47.556;18.728;2023-02-17T01:16:47;100497.06;;;21.75;28.14
51249;BME280;39642;47.556;18.728;2023-02-17T01:19:16;100494.41;;;21.75;27.83
51249;BME280;39642;47.556;18.728;2023-02-17T01:21:42;100491.69;;;21.76;28.08
51249;BME280;39642;47.556;18.728;2023-02-17T01:24:09;100487.22;;;21.77;27.48
51249;BME280;39642;47.556;18.728;2023-02-17T01:26:36;100489.88;;;21.77;27.99
51249;BME280;39642;47.556;18.728;2023-02-17T01:29:05;100495.19;;;21.77;28.01
51249;BME280;39642;47.556;18.728;2023-02-17T01:31:32;100499.56;;;21.78;27.43
51249;BME280;39642;47.556;18.728;2023-02-17T01:34:00;100497.84;;;21.77;28.21
51249;BME280;39642;47.556;18.728;2023-02-17T01:36:26;100486.38;;;21.76;28.21
51249;BME280;39642;47.556;18.728;2023-02-17T01:38:53;100479.38;;;21.75;28.05
51249;BME280;39642;47.556;18.728;2023-02-17T01:41:21;100475.84;;;21.75;28.38
51249;BME280;39642;47.556;18.728;2023-02-17T01:44:07;100475.84;;;21.75;28.28
51249;BME280;39642;47.556;18.728;2023-02-17T01:46:34;100481.16;;;21.75;28.16
51249;BME280;39642;47.556;18.728;2023-02-17T01:49:02;100476.81;;;21.74;28.44
51249;BME280;39642;47.556;18.728;2023-02-17T01:51:33;100464.47;;;21.73;28.54
51249;BME280;39642;47.556;18.728;2023-02-17T01:54:04;100461.81;;;21.73;28.32
51249;BME280;39642;47.556;18.728;2023-02-17T01:56:32;100466.28;;;21.72;27.93
51249;BME280;39642;47.556;18.728;2023-02-17T01:59:04;100471.69;;;21.71;27.97
51249;BME280;39642;47.556;18.728;2023-02-17T02:01:32;100472.59;;;21.70;28.00
51249;BME280;39642;47.556;18.728;2023-02-17T02:03:59;100465.59;;;21.69;28.10
51249;BME280;39642;47.556;18.728;2023-02-17T02:06:27;100460.28;;;21.69;28.19
51249;BME280;39642;47.556;18.728;2023-02-17T02:08:59;100456.75;;;21.68;28.37
51249;BME280;39642;47.556;18.728;2023-02-17T02:11:27;100456.88;;;21.67;27.97
51249;BME280;39642;47.556;18.728;2023-02-17T02:13:53;100456.88;;;21.67;28.18
51249;BME280;39642;47.556;18.728;2023-02-17T02:16:26;100443.63;;;21.67;27.60
51249;BME280;39642;47.556;18.728;2023-02-17T02:19:27;100445.41;;;21.66;28.13
51249;BME280;39642;47.556;18.728;2023-02-17T02:22:23;100447.19;;;21.66;28.37
51249;BME280;39642;47.556;18.728;2023-02-17T02:36:48;100438.13;;;21.70;27.90
51249;BME280;39642;47.556;18.728;2023-02-17T02:39:18;100435.50;;;21.70;27.89
51249;BME280;39642;47.556;18.728;2023-02-17T02:44:15;100430.13;;;21.71;27.95
51249;BME280;39642;47.556;18.728;2023-02-17T02:46:42;100435.31;;;21.73;27.78
51249;BME280;39642;47.556;18.728;2023-02-17T02:49:08;100433.53;;;21.73;27.63
51249;BME280;39642;47.556;18.728;2023-02-17T02:55:00;100427.28;;;21.74;27.51
51249;BME280;39642;47.556;18.728;2023-02-17T03:00:28;100408.66;;;21.76;27.86
51249;BME280;39642;47.556;18.728;2023-02-17T03:03:14;100410.47;;;21.75;27.88
51249;BME280;39642;47.556;18.728;2023-02-17T03:05:51;100429.03;;;21.75;27.92
51249;BME280;39642;47.556;18.728;2023-02-17T03:08:25;100427.22;;;21.76;27.91
51249;BME280;39642;47.556;18.728;2023-02-17T03:10:54;100428.13;;;21.75;28.03
51249;BME280;39642;47.556;18.728;2023-02-17T03:13:20;100435.25;;;21.74;27.56
51249;BME280;39642;47.556;18.728;2023-02-17T03:15:47;100429.09;;;21.74;27.69
51249;BME280;39642;47.556;18.728;2023-02-17T03:18:13;100431.81;;;21.72;28.07
51249;BME280;39642;47.556;18.728;2023-02-17T03:20:44;100435.31;;;21.73;28.24
51249;BME280;39642;47.556;18.728;2023-02-17T03:23:10;100433.63;;;21.72;28.08
51249;BME280;39642;47.556;18.728;2023-02-17T03:25:36;100441.56;;;21.72;27.88
51249;BME280;39642;47.556;18.728;2023-02-17T03:28:02;100451.31;;;21.71;27.92
51249;BME280;39642;47.556;18.728;2023-02-17T03:30:28;100452.25;;;21.70;27.93
51249;BME280;39642;47.556;18.728;2023-02-17T03:32:54;100439.94;;;21.69;27.96
51249;BME280;39642;47.556;18.728;2023-02-17T03:35:20;100447.88;;;21.69;28.17
51249;BME280;39642;47.556;18.728;2023-02-17T03:37:46;100439.16;;;21.67;28.05
51249;BME280;39642;47.556;18.728;2023-02-17T03:40:12;100445.31;;;21.68;28.16
51249;BME280;39642;47.556;18.728;2023-02-17T03:42:38;100432.25;;;21.65;27.60
51249;BME280;39642;47.556;18.728;2023-02-17T03:45:04;100438.31;;;21.67;27.95
51249;BME280;39642;47.556;18.728;2023-02-17T03:47:30;100439.25;;;21.66;28.03
51249;BME280;39642;47.556;18.728;2023-02-17T03:49:56;100444.53;;;21.66;28.23
51249;BME280;39642;47.556;18.728;2023-02-17T03:52:22;100438.38;;;21.65;28.27
51249;BME280;39642;47.556;18.728;2023-02-17T03:54:48;100444.53;;;21.66;27.95
51249;BME280;39642;47.556;18.728;2023-02-17T03:57:13;100439.25;;;21.66;27.87
51249;BME280;39642;47.556;18.728;2023-02-17T03:59:39;100439.25;;;21.66;26.84
51249;BME280;39642;47.556;18.728;2023-02-17T04:02:05;100435.66;;;21.67;27.67
51249;BME280;39642;47.556;18.728;2023-02-17T04:04:31;100429.41;;;21.68;27.63
51249;BME280;39642;47.556;18.728;2023-02-17T04:06:57;100427.59;;;21.68;27.53
51249;BME280;39642;47.556;18.728;2023-02-17T04:09:23;100429.34;;;21.69;27.67
51249;BME280;39642;47.556;18.728;2023-02-17T04:11:49;100430.19;;;21.70;27.36
51249;BME280;39642;47.556;18.728;2023-02-17T04:14:15;100434.56;;;21.71;27.14
51249;BME280;39642;47.556;18.728;2023-02-17T04:16:41;100430.97;;;21.72;27.07
51249;BME280;39642;47.556;18.728;2023-02-17T04:19:07;100429.16;;;21.72;27.14
51249;BME280;39642;47.556;18.728;2023-02-17T04:21:33;100408.81;;;21.73;27.24
51249;BME280;39642;47.556;18.728;2023-02-17T04:24:00;100411.38;;;21.74;27.16
51249;BME280;39642;47.556;18.728;2023-02-17T04:26:27;100412.25;;;21.75;27.36
51249;BME280;39642;47.556;18.728;2023-02-17T04:28:53;100414.81;;;21.76;27.25
51249;BME280;39642;47.556;18.728;2023-02-17T04:31:19;100419.28;;;21.76;27.27
51249;BME280;39642;47.556;18.728;2023-02-17T04:33:44;100412.16;;;21.76;27.21
51249;BME280;39642;47.556;18.728;2023-02-17T04:36:10;100413.97;;;21.76;27.40
51249;BME280;39642;47.556;18.728;2023-02-17T04:38:37;100411.25;;;21.77;27.48
51249;BME280;39642;47.556;18.728;2023-02-17T04:41:04;100416.63;;;21.76;27.35
51249;BME280;39642;47.556;18.728;2023-02-17T04:43:31;100416.63;;;21.76;27.65
51249;BME280;39642;47.556;18.728;2023-02-17T04:45:57;100411.31;;;21.76;27.48
51249;BME280;39642;47.556;18.728;2023-02-17T04:48:24;100423.78;;;21.74;27.23
51249;BME280;39642;47.556;18.728;2023-02-17T04:50:51;100416.69;;;21.74;27.57
51249;BME280;39642;47.556;18.728;2023-02-17T04:53:17;100429.94;;;21.74;27.73
51249;BME280;39642;47.556;18.728;2023-02-17T04:55:43;100427.37;;;21.73;27.70
51249;BME280;39642;47.556;18.728;2023-02-17T04:58:09;100432.66;;;21.73;27.52
51249;BME280;39642;47.556;18.728;2023-02-17T05:00:35;100430.97;;;21.72;27.70
51249;BME280;39642;47.556;18.728;2023-02-17T05:03:02;100438.06;;;21.71;27.45
51249;BME280;39642;47.556;18.728;2023-02-17T05:05:28;100441.63;;;21.70;27.58
51249;BME280;39642;47.556;18.728;2023-02-17T05:07:54;100438.13;;;21.70;27.64
51249;BME280;39642;47.556;18.728;2023-02-17T05:10:20;100437.28;;;21.69;27.81
51249;BME280;39642;47.556;18.728;2023-02-17T05:12:46;100442.59;;;21.69;27.50
51249;BME280;39642;47.556;18.728;2023-02-17T05:15:12;100435.56;;;21.68;27.57
51249;BME280;39642;47.556;18.728;2023-02-17T05:17:38;100431.13;;;21.69;27.53
51249;BME280;39642;47.556;18.728;2023-02-17T05:20:05;100435.56;;;21.68;27.57
51249;BME280;39642;47.556;18.728;2023-02-17T05:22:31;100427.59;;;21.68;27.51
51249;BME280;39642;47.556;18.728;2023-02-17T05:24:57;100421.47;;;21.68;27.01
51249;BME280;39642;47.556;18.728;2023-02-17T05:27:23;100424.97;;;21.68;27.29
51249;BME280;39642;47.556;18.728;2023-02-17T05:29:49;100423.19;;;21.69;26.68
51249;BME280;39642;47.556;18.728;2023-02-17T05:32:16;100418.75;;;21.69;26.88
51249;BME280;39642;47.556;18.728;2023-02-17T05:34:42;100423.09;;;21.70;26.42
51249;BME280;39642;47.556;18.728;2023-02-17T05:37:08;100428.38;;;21.70;26.35
51249;BME280;39642;47.556;18.728;2023-02-17T05:39:34;100408.91;;;21.71;26.03
51249;BME280;39642;47.556;18.728;2023-02-17T05:42:00;100409.75;;;21.72;26.21
51249;BME280;39642;47.556;18.728;2023-02-17T05:44:26;100412.41;;;21.72;26.08
51249;BME280;39642;47.556;18.728;2023-02-17T05:46:52;100424.72;;;21.73;26.41
51249;BME280;39642;47.556;18.728;2023-02-17T05:49:18;100422.06;;;21.73;26.12
51249;BME280;39642;47.556;18.728;2023-02-17T05:51:44;100414.03;;;21.74;26.15
51249;BME280;39642;47.556;18.728;2023-02-17T05:54:09;100426.44;;;21.74;26.81
51249;BME280;39642;47.556;18.728;2023-02-17T05:56:35;100426.38;;;21.75;26.54
51249;BME280;39642;47.556;18.728;2023-02-17T05:59:01;100431.66;;;21.75;27.01
51249;BME280;39642;47.556;18.728;2023-02-17T06:01:27;100432.59;;;21.74;26.63
51249;BME280;39642;47.556;18.728;2023-02-17T06:03:53;100434.41;;;21.74;27.57
51249;BME280;39642;47.556;18.728;2023-02-17T06:06:19;100430.78;;;21.75;26.81
51249;BME280;39642;47.556;18.728;2023-02-17T06:08:45;100428.13;;;21.75;26.87
51249;BME280;39642;47.556;18.728;2023-02-17T06:11:14;100427.22;;;21.76;26.92
51249;BME280;39642;47.556;18.728;2023-02-17T06:13:39;100429.87;;;21.76;27.51
51249;BME280;39642;47.556;18.728;2023-02-17T06:16:06;100430.66;;;21.78;27.55
51249;BME280;39642;47.556;18.728;2023-02-17T06:18:31;100430.66;;;21.78;27.66
51249;BME280;39642;47.556;18.728;2023-02-17T06:20:58;100435.00;;;21.79;27.07
51249;BME280;39642;47.556;18.728;2023-02-17T06:23:25;100431.41;;;21.80;27.27
51249;BME280;39642;47.556;18.728;2023-02-17T06:25:51;100434.06;;;21.80;27.76
51249;BME280;39642;47.556;18.728;2023-02-17T06:28:17;100441.91;;;21.81;27.69
51249;BME280;39642;47.556;18.728;2023-02-17T06:30:43;100443.72;;;21.81;28.75
51249;BME280;39642;47.556;18.728;2023-02-17T06:33:09;100449.81;;;21.83;28.43
51249;BME280;39642;47.556;18.728;2023-02-17T06:35:35;100450.91;;;21.79;28.57
51249;BME280;39642;47.556;18.728;2023-02-17T06:38:01;100449.97;;;21.80;28.78
51249;BME280;39642;47.556;18.728;2023-02-17T06:40:27;100456.12;;;21.80;28.63
51249;BME280;39642;47.556;18.728;2023-02-17T06:42:52;100453.56;;;21.79;28.89
51249;BME280;39642;47.556;18.728;2023-02-17T06:45:18;100442.16;;;21.77;29.15
51249;BME280;39642;47.556;18.728;2023-02-17T06:47:44;100437.91;;;21.74;28.87
51249;BME280;39642;47.556;18.728;2023-02-17T06:50:10;100437.03;;;21.74;28.95
51249;BME280;39642;47.556;18.728;2023-02-17T06:52:36;100437.13;;;21.72;29.01
51249;BME280;39642;47.556;18.728;2023-02-17T06:55:02;100448.75;;;21.70;28.94
51249;BME280;39642;47.556;18.728;2023-02-17T06:57:28;100441.75;;;21.69;28.82
51249;BME280;39642;47.556;18.728;2023-02-17T06:59:54;100452.34;;;21.69;28.99
51249;BME280;39642;47.556;18.728;2023-02-17T07:02:20;100450.47;;;21.71;28.52
51249;BME280;39642;47.556;18.728;2023-02-17T07:04:46;100447.72;;;21.72;28.64
51249;BME280;39642;47.556;18.728;2023-02-17T07:07:12;100443.28;;;21.73;28.44
51249;BME280;39642;47.556;18.728;2023-02-17T07:09:38;100448.56;;;21.73;28.38
51249;BME280;39642;47.556;18.728;2023-02-17T07:12:05;100447.66;;;21.74;28.15
51249;BME280;39642;47.556;18.728;2023-02-17T07:14:32;100442.28;;;21.75;28.05
51249;BME280;39642;47.556;18.728;2023-02-17T07:16:59;100442.16;;;21.77;28.13
51249;BME280;39642;47.556;18.728;2023-02-17T07:19:25;100435.00;;;21.79;28.17
51249;BME280;39642;47.556;18.728;2023-02-17T07:21:51;100442.88;;;21.80;28.01
51249;BME280;39642;47.556;18.728;2023-02-17T07:24:17;100441.91;;;21.81;28.27
51249;BME280;39642;47.556;18.728;2023-02-17T07:26:43;100432.19;;;21.82;28.18
51249;BME280;39642;47.556;18.728;2023-02-17T07:29:09;100426.91;;;21.82;28.12
51249;BME280;39642;47.556;18.728;2023-02-17T07:31:35;100434.75;;;21.83;28.18
51249;BME280;39642;47.556;18.728;2023-02-17T07:34:02;100425.00;;;21.84;28.33
51249;BME280;39642;47.556;18.728;2023-02-17T07:36:29;100425.00;;;21.84;28.35
51249;BME280;39642;47.556;18.728;2023-02-17T07:38:55;100425.00;;;21.84;28.20
51249;BME280;39642;47.556;18.728;2023-02-17T07:41:22;100422.34;;;21.84;28.31
51249;BME280;39642;47.556;18.728;2023-02-17T07:43:52;100424.84;;;21.87;28.38
51249;BME280;39642;47.556;18.728;2023-02-17T07:46:19;100417.81;;;21.86;28.50
51249;BME280;39642;47.556;18.728;2023-02-17T07:48:45;100417.81;;;21.86;28.29
51249;BME280;39642;47.556;18.728;2023-02-17T07:51:13;100422.28;;;21.86;28.25
51249;BME280;39642;47.556;18.728;2023-02-17T07:53:40;100422.12;;;21.89;28.24
51249;BME280;39642;47.556;18.728;2023-02-17T07:56:09;100422.19;;;21.87;28.36
51249;BME280;39642;47.556;18.728;2023-02-17T07:58:36;100424.06;;;21.85;29.30
51249;BME280;39642;47.556;18.728;2023-02-17T08:01:11;100420.47;;;21.86;29.27
51249;BME280;39642;47.556;18.728;2023-02-17T08:03:37;100414.38;;;21.84;31.80
51249;BME280;39642;47.556;18.728;2023-02-17T08:06:04;100414.38;;;21.84;29.69
51249;BME280;39642;47.556;18.728;2023-02-17T08:08:33;100416.13;;;21.85;28.68
51249;BME280;39642;47.556;18.728;2023-02-17T08:11:17;100420.41;;;21.88;29.04
51249;BME280;39642;47.556;18.728;2023-02-17T08:14:02;100416.81;;;21.89;28.60
51249;BME280;39642;47.556;18.728;2023-02-17T08:16:28;100419.38;;;21.90;28.81
51249;BME280;39642;47.556;18.728;2023-02-17T08:18:54;100422.78;;;21.92;28.49
51249;BME280;39642;47.556;18.728;2023-02-17T08:21:24;100417.50;;;21.92;28.13
51249;BME280;39642;47.556;18.728;2023-02-17T08:23:50;100421.00;;;21.93;27.95
51249;BME280;39642;47.556;18.728;2023-02-17T08:26:17;100427.19;;;21.93;28.06
51249;BME280;39642;47.556;18.728;2023-02-17T08:28:44;100435.12;;;21.93;27.93
51249;BME280;39642;47.556;18.728;2023-02-17T08:31:23;100430.75;;;21.92;27.95
51249;BME280;39642;47.556;18.728;2023-02-17T08:33:50;100431.59;;;21.93;28.22
51249;BME280;39642;47.556;18.728;2023-02-17T08:36:17;100429.81;;;21.93;27.89
51249;BME280;39642;47.556;18.728;2023-02-17T08:38:43;100425.44;;;21.92;27.88
51249;BME280;39642;47.556;18.728;2023-02-17T08:41:20;100423.63;;;21.93;28.23
51249;BME280;39642;47.556;18.728;2023-02-17T08:43:47;100425.50;;;21.91;28.76
51249;BME280;39642;47.556;18.728;2023-02-17T08:46:14;100428.16;;;21.91;28.06
51249;BME280;39642;47.556;18.728;2023-02-17T08:48:41;100430.91;;;21.89;28.19
51249;BME280;39642;47.556;18.728;2023-02-17T08:51:11;100420.31;;;21.89;28.18
51249;BME280;39642;47.556;18.728;2023-02-17T08:53:37;100420.72;;;21.81;27.38
51249;BME280;39642;47.556;18.728;2023-02-17T08:56:03;100427.22;;;21.76;28.06
51249;BME280;39642;47.556;18.728;2023-02-17T08:58:30;100424.72;;;21.73;27.66
51249;BME280;39642;47.556;18.728;2023-02-17T09:00:56;100430.37;;;21.67;28.34
51249;BME280;39642;47.556;18.728;2023-02-17T09:03:22;100435.81;;;21.63;27.71
51249;BME280;39642;47.556;18.728;2023-02-17T09:05:48;100436.94;;;21.59;28.11
51249;BME280;39642;47.556;18.728;2023-02-17T09:08:14;100440.31;;;21.61;28.65
51249;BME280;39642;47.556;18.728;2023-02-17T09:10:40;100434.28;;;21.59;28.00
51249;BME280;39642;47.556;18.728;2023-02-17T09:13:06;100430.84;;;21.57;28.17
51249;BME280;39642;47.556;18.728;2023-02-17T09:15:32;100426.56;;;21.55;28.60
51249;BME280;39642;47.556;18.728;2023-02-17T09:18:00;100425.69;;;21.54;28.47
51249;BME280;39642;47.556;18.728;2023-02-17T09:20:26;100422.38;;;21.51;28.81
51249;BME280;39642;47.556;18.728;2023-02-17T09:22:51;100424.13;;;21.50;29.58
51249;BME280;39642;47.556;18.728;2023-02-17T09:25:18;100421.50;;;21.50;29.53
51249;BME280;39642;47.556;18.728;2023-02-17T09:27:43;100419.84;;;21.48;29.34
51249;BME280;39642;47.556;18.728;2023-02-17T09:30:10;100419.09;;;21.46;28.72
51249;BME280;39642;47.556;18.728;2023-02-17T09:32:36;100422.69;;;21.45;29.07
51249;BME280;39642;47.556;18.728;2023-02-17T09:35:02;100419.25;;;21.42;28.55
51249;BME280;39642;47.556;18.728;2023-02-17T09:37:30;100411.38;;;21.41;28.51
51249;BME280;39642;47.556;18.728;2023-02-17T09:39:56;100408.78;;;21.39;28.50
51249;BME280;39642;47.556;18.728;2023-02-17T09:42:24;100407.16;;;21.37;28.04
51249;BME280;39642;47.556;18.728;2023-02-17T09:45:01;100405.50;;;21.34;29.40
51249;BME280;39642;47.556;18.728;2023-02-17T09:47:42;100406.06;;;21.41;30.04
51249;BME280;39642;47.556;18.728;2023-02-17T09:50:53;100402.44;;;21.44;29.20
51249;BME280;39642;47.556;18.728;2023-02-17T09:56:23;100412.47;;;21.37;28.50
51249;BME280;39642;47.556;18.728;2023-02-17T09:59:15;100411.16;;;21.28;29.01
51249;BME280;39642;47.556;18.728;2023-02-17T10:01:45;100402.50;;;21.25;28.58
51249;BME280;39642;47.556;18.728;2023-02-17T10:04:18;100399.06;;;21.23;29.25
51249;BME280;39642;47.556;18.728;2023-02-17T10:07:10;100395.50;;;21.24;29.21
51249;BME280;39642;47.556;18.728;2023-02-17T10:09:36;100400.00;;;21.21;29.11
51249;BME280;39642;47.556;18.728;2023-02-17T10:12:11;100397.44;;;21.20;29.15
51249;BME280;39642;47.556;18.728;2023-02-17T10:14:47;100400.00;;;21.21;29.16
51249;BME280;39642;47.556;18.728;2023-02-17T10:17:16;100399.16;;;21.21;29.16
51249;BME280;39642;47.556;18.728;2023-02-17T10:20:11;100380.53;;;21.23;28.87
51249;BME280;39642;47.556;18.728;2023-02-17T10:22:42;100382.87;;;21.29;29.19
51249;BME280;39642;47.556;18.728;2023-02-17T10:25:18;100384.50;;;21.31;28.66
51249;BME280;39642;47.556;18.728;2023-02-17T10:27:50;100381.91;;;21.30;28.70
51249;BME280;39642;47.556;18.728;2023-02-17T10:30:54;100376.63;;;21.30;28.60
51249;BME280;39642;47.556;18.728;2023-02-17T10:33:28;100374.84;;;21.30;28.53
51249;BME280;39642;47.556;18.728;2023-02-17T10:36:10;100362.59;;;21.28;28.60
51249;BME280;39642;47.556;18.728;2023-02-17T10:41:14;100357.47;;;21.25;28.56
51249;BME280;39642;47.556;18.728;2023-02-17T10:43:42;100355.84;;;21.22;28.73
51249;BME280;39642;47.556;18.728;2023-02-17T10:46:14;100353.97;;;21.24;28.48
51249;BME280;39642;47.556;18.728;2023-02-17T10:48:50;100350.47;;;21.24;28.40
51249;BME280;39642;47.556;18.728;2023-02-17T10:51:21;100347.03;;;21.21;29.15
51249;BME280;39642;47.556;18.728;2023-02-17T10:53:51;100346.94;;;21.23;28.81
51249;BME280;39642;47.556;18.728;2023-02-17T10:56:24;100348.84;;;21.21;28.85
51249;BME280;39642;47.556;18.728;2023-02-17T10:58:54;100344.53;;;21.18;29.08
51249;BME280;39642;47.556;18.728;2023-02-17T11:01:21;100343.75;;;21.16;28.83
51249;BME280;39642;47.556;18.728;2023-02-17T11:04:01;100346.41;;;21.16;29.26
51249;BME280;39642;47.556;18.728;2023-02-17T11:06:28;100340.38;;;21.14;29.09
51249;BME280;39642;47.556;18.728;2023-02-17T11:08:59;100338.56;;;21.15;29.26
51249;BME280;39642;47.556;18.728;2023-02-17T11:11:28;100342.06;;;21.15;29.21
51249;BME280;39642;47.556;18.728;2023-02-17T11:16:49;100333.94;;;21.18;29.09
51249;BME280;39642;47.556;18.728;2023-02-17T11:19:33;100319.63;;;21.23;29.00
51249;BME280;39642;47.556;18.728;2023-02-17T11:22:02;100316.03;;;21.24;29.04
51249;BME280;39642;47.556;18.728;2023-02-17T11:24:30;100320.47;;;21.23;28.87
51249;BME280;39642;47.556;18.728;2023-02-17T11:27:03;100311.59;;;21.24;28.88
51249;BME280;39642;47.556;18.728;2023-02-17T11:29:30;100307.22;;;21.23;28.99
51249;BME280;39642;47.556;18.728;2023-02-17T11:32:00;100298.34;;;21.24;29.23
51249;BME280;39642;47.556;18.728;2023-02-17T11:34:30;100298.94;;;21.29;29.13
51249;BME280;39642;47.556;18.728;2023-02-17T11:37:01;100307.50;;;21.34;28.87
51249;BME280;39642;47.556;18.728;2023-02-17T11:39:28;100302.19;;;21.34;29.02
51249;BME280;39642;47.556;18.728;2023-02-17T11:41:54;100299.81;;;21.30;29.84
51249;BME280;39642;47.556;18.728;2023-02-17T11:44:25;100296.31;;;21.29;30.65
51249;BME280;39642;47.556;18.728;2023-02-17T11:55:22;100277.25;;;21.38;30.66
51249;BME280;39642;47.556;18.728;2023-02-17T12:06:41;100269.75;;;21.31;30.47
51249;BME280;39642;47.556;18.728;2023-02-17T12:12:04;100262.91;;;21.27;30.67
51249;BME280;39642;47.556;18.728;2023-02-17T12:23:25;100246.75;;;21.31;31.36
51249;BME280;39642;47.556;18.728;2023-02-17T12:37:04;100245.88;;;21.48;30.91
51249;BME280;39642;47.556;18.728;2023-02-17T12:39:40;100253.47;;;21.54;32.26
51249;BME280;39642;47.556;18.728;2023-02-17T12:44:47;100247.25;;;21.55;31.60
51249;BME280;39642;47.556;18.728;2023-02-17T12:47:19;100249.03;;;21.55;31.43
51249;BME280;39642;47.556;18.728;2023-02-17T12:49:49;100243.75;;;21.55;31.25
51249;BME280;39642;47.556;18.728;2023-02-17T12:52:29;100234.13;;;21.52;31.34
51249;BME280;39642;47.556;18.728;2023-02-17T12:55:26;100234.56;;;21.45;31.38
51249;BME280;39642;47.556;18.728;2023-02-17T12:58:06;100224.28;;;21.38;31.63
51249;BME280;39642;47.556;18.728;2023-02-17T13:00:51;100226.16;;;21.36;32.40
51249;BME280;39642;47.556;18.728;2023-02-17T13:03:19;100230.00;;;21.31;32.01
51249;BME280;39642;47.556;18.728;2023-02-17T13:11:42;100227.44;;;21.29;33.48
51249;BME280;39642;47.556;18.728;2023-02-17T13:14:39;100231.88;;;21.29;34.19
51249;BME280;39642;47.556;18.728;2023-02-17T13:17:21;100225.75;;;21.28;34.73
51249;BME280;39642;47.556;18.728;2023-02-17T13:19:47;100227.50;;;21.28;34.37
51249;BME280;39642;47.556;18.728;2023-02-17T13:22:21;100220.53;;;21.27;34.09
51249;BME280;39642;47.556;18.728;2023-02-17T13:24:52;100219.66;;;21.26;34.00
51249;BME280;39642;47.556;18.728;2023-02-17T13:27:31;100218.81;;;21.26;34.59
51249;BME280;39642;47.556;18.728;2023-02-17T13:32:41;100207.47;;;21.24;33.95
51249;BME280;39642;47.556;18.728;2023-02-17T13:37:44;100195.72;;;21.28;33.83
51249;BME280;39642;47.556;18.728;2023-02-17T13:42:52;100195.56;;;21.31;34.36
51249;BME280;39642;47.556;18.728;2023-02-17T13:45:32;100191.06;;;21.33;34.34
51249;BME280;39642;47.556;18.728;2023-02-17T13:51:25;100195.41;;;21.34;35.82
51249;BME280;39642;47.556;18.728;2023-02-17T13:53:52;100187.31;;;21.37;35.65
51249;BME280;39642;47.556;18.728;2023-02-17T13:56:28;100177.56;;;21.37;35.11
51249;BME280;39642;47.556;18.728;2023-02-17T13:59:06;100172.09;;;21.40;35.19
51249;BME280;39642;47.556;18.728;2023-02-17T14:01:35;100178.09;;;21.44;35.74
51249;BME280;39642;47.556;18.728;2023-02-17T14:04:01;100171.75;;;21.47;35.63
51249;BME280;39642;47.556;18.728;2023-02-17T14:06:35;100168.34;;;21.45;35.37
51249;BME280;39642;47.556;18.728;2023-02-17T14:09:32;100176.22;;;21.46;35.13
51249;BME280;39642;47.556;18.728;2023-02-17T14:12:01;100170.03;;;21.46;35.82
51249;BME280;39642;47.556;18.728;2023-02-17T14:14:31;100172.87;;;21.42;35.60
51249;BME280;39642;47.556;18.728;2023-02-17T14:17:05;100177.31;;;21.42;36.48
51249;BME280;39642;47.556;18.728;2023-02-17T14:19:49;100175.69;;;21.39;36.11